Latest Weather Observations for Charlton

IDV60801

Issued at 8:35 pm EST Wednesday 27 August 2014 (issued every 30 minutes, with the page automatically refreshed every 10 minutes)

About weather observations | Map of weather stations | Latest weather observations for VIC | Other Formats
Station Details ID: 080128 Name: CHARLTON Lat: -36.28 Lon: 143.33 Height: 131.7 m
Data from the previous 72 hours. | See also: Recent months at Charlton
Date/Time
EST
Temp
°C
App
Temp
°C
Dew
Point
Rel
Hum
%
Delta-T
°C
Wind Press
QNH
hPa
Press
MSL
hPa
Rain
since 9 am
mm
Dir
 
Spd
km/h
Gust
km/h
Spd
kts
Gust
kts
27/08:30pm 9.5 8.6 5.9 78 1.7 SSW 0 0 0 0 1027.5 1027.7 0.2
27/08:00pm 11.0 10.2 6.4 73 2.2 SSW 0 0 0 0 1027.4 1027.6 0.2
27/07:30pm 11.6 11.0 7.5 76 2.0 CALM 0 0 0 0 1027.1 1027.3 0.2
27/07:00pm 12.7 10.8 6.5 66 3.0 SSW 6 7 3 4 1026.8 1027.0 0.2
27/06:30pm 14.1 12.2 6.5 60 3.7 SSW 6 9 3 5 1026.7 1026.9 0.2
27/06:00pm 16.1 14.2 7.6 57 4.3 S 7 9 4 5 1026.5 1026.7 0.2
27/05:30pm 18.2 16.5 7.6 50 5.4 S 6 7 3 4 1026.2 1026.4 0.2
27/05:00pm 19.7 17.4 7.4 45 6.3 S 9 15 5 8 1026.0 1026.2 0.2
27/04:30pm 20.7 18.4 7.3 42 6.9 S 9 15 5 8 1025.9 1026.1 0.2
27/04:00pm 21.2 18.8 7.1 40 7.2 SSW 9 15 5 8 1025.7 1025.9 0.2
27/03:30pm 21.4 19.2 6.1 37 7.7 SW 7 11 4 6 1025.9 1026.1 0.2
27/03:00pm 20.4 17.9 6.7 41 6.9 WSW 9 15 5 8 1026.0 1026.2 0.2
27/02:30pm 21.3 19.0 7.5 41 7.2 S 9 15 5 8 1026.0 1026.2 0.2
27/02:00pm 22.2 19.8 7.2 38 7.7 WSW 9 17 5 9 1026.1 1026.3 0.2
27/01:30pm 21.2 18.7 6.7 39 7.4 WSW 9 13 5 7 1026.4 1026.6 0.2
27/01:00pm 21.0 18.2 6.9 40 7.2 W 11 15 6 8 1026.8 1027.0 0.2
27/12:30pm 20.7 18.4 7.3 42 6.9 SW 9 15 5 8 1027.2 1027.4 0.0
27/12:00pm 19.9 17.6 7.3 44 6.4 W 9 17 5 9 1027.6 1027.8 0.0
27/11:30am 19.6 17.9 7.7 46 6.1 WSW 6 13 3 7 1027.9 1028.1 0.0
27/11:00am 18.6 16.2 7.1 47 5.8 W 9 13 5 7 1028.2 1028.4 0.0
27/10:30am 18.0 15.8 8.0 52 5.1 NW 9 11 5 6 1028.2 1028.4 0.0
27/10:00am 16.9 15.8 8.3 57 4.4 WNW 4 7 2 4 1028.4 1028.6 0.0
27/09:30am 15.2 15.0 8.9 66 3.2 CALM 0 6 0 3 1028.4 1028.6 0.0
27/09:00am 12.1 10.8 7.6 74 2.2 SSE 4 7 2 4 1028.3 1028.5 -
27/08:30am 9.0 7.6 7.1 88 0.9 S 4 7 2 4 1028.1 1028.3 -
27/08:00am 6.3 5.4 6.2 99 0.0 CALM 0 0 0 0 1027.8 1028.0 -
27/07:30am 3.8 2.4 3.7 99 0.0 CALM 0 0 0 0 1027.5 1027.7 -
27/07:00am 3.1 1.6 3.0 99 0.0 CALM 0 0 0 0 1027.2 1027.4 -
27/06:30am 3.2 1.7 3.1 99 0.0 CALM 0 0 0 0 1026.8 1027.0 -
27/06:00am 2.7 1.1 2.4 98 0.1 SSE 0 0 0 0 1026.6 1026.8 -
27/05:30am 2.5 0.8 1.9 96 0.2 CALM 0 0 0 0 1026.5 1026.7 -
27/05:00am 3.0 1.4 2.4 96 0.2 CALM 0 0 0 0 1026.6 1026.8 -
27/04:30am 3.2 1.6 2.3 94 0.4 CALM 0 0 0 0 1026.5 1026.7 -
27/04:00am 3.7 2.2 3.0 95 0.3 CALM 0 0 0 0 1026.2 1026.4 -
27/03:30am 3.6 2.0 2.6 93 0.4 CALM 0 0 0 0 1026.0 1026.2 -
27/03:00am 4.7 3.3 3.8 94 0.4 CALM 0 0 0 0 1026.0 1026.2 0.0
27/02:30am 4.7 3.3 3.8 94 0.4 CALM 0 0 0 0 1026.0 1026.2 -
27/02:00am 4.4 3.0 3.4 93 0.4 CALM 0 6 0 3 1026.0 1026.2 -
27/01:30am 4.2 2.7 3.2 93 0.4 CALM 0 0 0 0 1026.1 1026.3 -
27/01:00am 4.0 2.5 2.8 92 0.5 CALM 0 0 0 0 1026.1 1026.3 -
27/12:30am 4.5 3.1 3.6 94 0.4 CALM 0 0 0 0 1026.1 1026.3 -
27/12:00am 4.2 2.6 2.2 87 0.8 SSW 0 0 0 0 1026.0 1026.2 -
 
Date/Time
EST
Temp
°C
App
Temp
°C
Dew
Point
Rel
Hum
%
Delta-T
°C
Wind Press
QNH
hPa
Press
MSL
hPa
Rain
since 9 am
mm
Dir
 
Spd
km/h
Gust
km/h
Spd
kts
Gust
kts
26/11:30pm 5.2 3.8 3.7 90 0.6 CALM 0 0 0 0 1026.1 1026.3 -
26/11:00pm 4.8 3.2 2.5 85 0.9 CALM 0 0 0 0 1026.1 1026.3 -
26/10:30pm 5.8 4.4 3.6 86 0.9 CALM 0 0 0 0 1026.1 1026.3 -
26/10:00pm 6.1 4.7 3.6 84 1.1 CALM 0 0 0 0 1026.2 1026.4 -
26/09:30pm 6.6 5.2 3.6 81 1.3 CALM 0 0 0 0 1026.1 1026.3 -
26/09:00pm 7.7 6.5 4.7 81 1.3 CALM 0 0 0 0 1026.0 1026.2 0.0
26/08:30pm 8.7 7.6 4.9 77 1.7 CALM 0 0 0 0 1025.9 1026.1 -
26/08:00pm 9.9 8.5 5.5 74 2.0 ENE 2 9 1 5 1025.7 1025.9 -
26/07:30pm 10.6 9.6 5.4 70 2.4 CALM 0 6 0 3 1025.5 1025.7 -
26/07:00pm 12.0 11.0 5.6 65 3.0 CALM 0 0 0 0 1025.2 1025.4 -
26/06:30pm 12.8 11.8 5.5 61 3.4 CALM 0 0 0 0 1025.0 1025.2 -
26/06:00pm 14.9 12.8 6.0 55 4.3 SSE 6 7 3 4 1024.9 1025.1 -
26/05:30pm 17.7 15.7 6.3 47 5.6 S 6 9 3 5 1024.5 1024.7 -
26/05:00pm 19.0 16.7 5.5 41 6.6 ESE 7 9 4 5 1024.3 1024.5 -
26/04:30pm 19.5 16.9 4.4 37 7.3 S 7 11 4 6 1024.1 1024.3 -
26/04:00pm 19.5 16.5 4.0 36 7.4 ESE 9 13 5 7 1024.2 1024.4 -
26/03:30pm 19.9 17.0 4.4 36 7.5 SSE 9 17 5 9 1024.2 1024.4 -
26/03:00pm 19.8 16.8 3.9 35 7.6 E 9 13 5 7 1024.2 1024.4 -
26/02:30pm 19.9 18.7 4.8 37 7.4 CALM 0 2 0 1 1024.5 - 0.0
26/02:00pm 19.5 18.3 4.4 37 7.3 CALM 0 6 0 3 1024.7 - 0.0
26/01:30pm 19.6 18.6 5.6 40 6.9 CALM 0 17 0 9 1025.0 - 0.0
26/12:30pm 18.8 16.2 6.3 44 6.2 E 9 20 5 11 1026.1 1026.3 0.0
26/12:00pm 18.1 16.2 5.0 42 6.3 SE 4 9 2 5 1026.6 1026.8 0.0
26/11:30am 17.4 15.3 6.6 49 5.4 ENE 7 13 4 7 1026.9 1027.1 0.0
26/11:00am 15.9 13.7 6.3 53 4.7 S 7 13 4 7 1027.2 1027.4 0.0
26/10:30am 15.1 12.4 7.4 60 3.8 SE 11 15 6 8 1027.3 1027.5 0.0
26/10:00am 13.4 10.5 8.0 70 2.7 SE 13 19 7 10 1027.4 1027.6 0.0
26/09:30am 12.2 9.3 8.3 77 1.9 SSE 13 20 7 11 1027.5 1027.7 0.0
26/09:00am 10.8 8.1 8.9 88 0.9 SSE 13 20 7 11 1027.5 1027.7 0.0
26/08:30am 8.9 6.8 8.3 96 0.3 S 9 13 5 7 1027.3 1027.5 0.0
26/08:00am 6.9 4.9 6.9 100 0.0 S 7 9 4 5 1027.2 1027.4 0.0
26/07:30am 5.4 3.2 5.3 99 0.0 S 6 11 3 6 1027.0 1027.2 0.0
26/07:00am 4.4 2.0 4.3 99 0.0 SW 6 6 3 3 1026.7 1026.9 0.0
26/06:30am 4.6 2.1 4.5 99 0.0 S 7 11 4 6 1026.2 1026.4 0.0
26/06:00am 5.0 3.1 4.9 99 0.0 WSW 4 6 2 3 1026.1 1026.3 0.0
26/05:30am 4.2 1.6 4.1 99 0.0 S 7 9 4 5 1025.9 1026.1 0.0
26/05:00am 5.2 2.8 5.1 99 0.0 S 7 11 4 6 1025.8 1026.0 0.0
26/04:30am 4.7 2.4 4.6 99 0.0 SW 6 7 3 4 1025.9 1026.1 0.0
26/04:00am 4.4 2.0 4.3 99 0.0 S 6 7 3 4 1025.9 1026.1 0.0
26/03:30am 4.7 1.8 4.6 99 0.0 SSE 9 11 5 6 1026.1 1026.3 0.0
26/03:00am 5.6 3.4 5.5 99 0.0 S 6 9 3 5 1026.4 1026.6 0.0
26/02:30am 5.5 3.0 4.9 96 0.3 S 7 11 4 6 1026.7 1026.9 0.0
26/02:00am 6.8 4.3 6.7 99 0.0 SSW 9 13 5 7 1026.7 1026.9 0.0
26/01:30am 6.2 3.9 5.9 98 0.1 S 7 9 4 5 1026.6 1026.8 0.0
26/01:00am 6.4 3.8 6.0 97 0.2 S 9 11 5 6 1026.7 1026.9 0.0
26/12:30am 7.0 3.8 6.7 98 0.1 SSE 13 19 7 10 1026.8 1027.0 0.0
26/12:00am 7.0 4.2 6.9 99 0.0 SSE 11 17 6 9 1026.8 1027.0 0.0
 
Date/Time
EST
Temp
°C
App
Temp
°C
Dew
Point
Rel
Hum
%
Delta-T
°C
Wind Press
QNH
hPa
Press
MSL
hPa
Rain
since 9 am
mm
Dir
 
Spd
km/h
Gust
km/h
Spd
kts
Gust
kts
25/11:30pm 5.4 2.9 4.7 95 0.3 S 7 11 4 6 1026.8 1027.0 0.0
25/11:00pm 6.8 4.6 6.2 96 0.3 S 7 13 4 7 1027.0 1027.2 0.0
25/10:30pm 7.4 5.0 7.0 97 0.2 SSE 9 15 5 8 1027.2 1027.4 0.0
25/10:00pm 7.6 4.8 6.9 95 0.3 SSE 11 15 6 8 1027.2 1027.4 0.0
25/09:30pm 8.4 5.3 7.3 93 0.5 SSE 13 17 7 9 1027.2 1027.4 0.0
25/09:00pm 9.1 5.7 7.5 90 0.8 SSE 15 22 8 12 1027.2 1027.4 0.0
25/08:30pm 9.5 6.5 7.8 89 0.8 S 13 19 7 10 1026.9 1027.1 0.0
25/08:00pm 9.5 7.2 7.4 87 1.0 S 9 15 5 8 1026.9 1027.1 0.0
25/07:30pm 10.5 8.0 8.1 85 1.2 S 11 15 6 8 1026.7 1026.9 0.0
25/07:00pm 10.2 8.1 8.1 87 1.0 S 9 13 5 7 1026.4 1026.6 0.0
25/06:30pm 11.4 8.3 8.8 84 1.3 S 15 20 8 11 1026.4 1026.6 0.0
25/06:00pm 13.1 7.8 6.7 65 3.1 SSE 24 43 13 23 1026.2 1026.4 0.0
25/05:30pm 14.2 10.0 7.5 64 3.3 S 19 35 10 19 1025.6 1025.8 0.0
25/05:00pm 14.9 11.5 7.7 62 3.6 S 15 26 8 14 1025.3 1025.5 0.0
25/04:30pm 15.2 10.9 7.0 58 4.1 S 19 30 10 16 1025.0 1025.2 0.0
25/04:00pm 15.8 11.7 7.8 59 4.0 S 19 30 10 16 1024.8 1025.0 0.0
25/03:30pm 15.3 11.7 8.5 64 3.5 SSW 17 26 9 14 1024.8 1025.0 0.0
25/03:00pm 14.3 10.5 8.9 70 2.7 SSW 19 30 10 16 1025.0 1025.2 0.0
25/02:30pm 16.0 12.2 9.2 64 3.5 SSW 19 28 10 15 1025.0 1025.2 0.0
25/02:00pm 15.5 11.9 8.5 63 3.6 SW 17 26 9 14 1025.2 1025.4 0.0
25/01:30pm 15.6 12.3 8.1 61 3.8 SSW 15 24 8 13 1025.4 1025.6 0.0
25/01:00pm 15.5 11.9 8.5 63 3.6 SSW 17 26 9 14 1025.9 1026.1 0.0
25/12:30pm 14.5 10.5 8.2 66 3.2 SSW 19 35 10 19 1026.2 1026.4 0.0
25/12:00pm 14.9 11.3 8.2 64 3.4 SSW 17 26 9 14 1026.7 1026.9 0.0
25/11:30am 14.4 10.9 8.6 68 2.9 SW 17 26 9 14 1027.0 1027.2 0.0
25/11:00am 13.6 10.0 8.4 71 2.6 SW 17 26 9 14 1027.6 1027.8 0.0
25/10:30am 13.5 9.6 8.6 72 2.5 WSW 19 32 10 17 1027.8 1028.0 0.0
25/10:00am 12.2 8.9 7.9 75 2.1 WSW 15 24 8 13 1028.2 1028.4 0.0
25/09:30am 12.2 9.3 8.1 76 2.0 WSW 13 24 7 13 1028.2 1028.4 0.0
25/09:00am 9.4 6.3 7.3 87 1.0 WSW 13 24 7 13 1028.3 1028.5 0.0
25/08:30am 9.2 5.7 7.3 88 0.9 WSW 15 22 8 12 1028.2 1028.4 0.0
25/08:00am 7.1 5.0 6.7 97 0.2 WSW 7 13 4 7 1028.2 1028.4 0.0
25/07:30am 6.4 3.7 5.7 95 0.3 SW 9 11 5 6 1028.2 1028.4 0.0
25/07:00am 5.7 2.9 5.1 96 0.3 WSW 9 13 5 7 1027.7 1027.9 0.0
25/06:30am 5.6 2.7 4.6 93 0.4 WSW 9 13 5 7 1027.3 1027.5 0.0
25/06:00am 6.1 3.0 5.4 95 0.3 WSW 11 17 6 9 1027.0 1027.2 0.0
25/05:30am 5.5 2.7 5.1 97 0.2 WSW 9 15 5 8 1026.8 1027.0 0.0
25/05:00am 4.8 2.2 4.2 96 0.3 SW 7 11 4 6 1026.9 1027.1 0.0
25/04:30am 4.7 2.1 4.1 96 0.3 WSW 7 11 4 6 1026.7 1026.9 0.0
25/04:00am 4.8 1.7 3.8 93 0.4 W 9 11 5 6 1026.7 1026.9 0.0
25/03:30am 5.3 2.7 4.0 91 0.6 SW 7 13 4 7 1027.0 1027.2 0.0
25/03:00am 5.8 2.5 4.3 90 0.6 SW 11 20 6 11 1027.0 1027.2 0.0
25/02:30am 6.0 2.6 4.2 88 0.8 SW 11 22 6 12 1027.2 1027.4 0.0
25/02:00am 5.9 2.1 4.1 88 0.8 WSW 13 20 7 11 1027.3 1027.5 0.0
25/01:30am 6.1 2.7 4.1 87 0.9 WSW 11 17 6 9 1027.5 1027.7 0.0
25/01:00am 6.6 2.9 4.3 85 1.0 WSW 13 20 7 11 1027.7 1027.9 0.0
25/12:30am 7.2 3.5 4.5 83 1.2 WSW 13 19 7 10 1027.7 1027.9 0.0
25/12:00am 7.2 3.5 4.5 83 1.2 WSW 13 20 7 11 1028.0 1028.2 0.0
 
Date/Time
EST
Temp
°C
App
Temp
°C
Dew
Point
Rel
Hum
%
Delta-T
°C
Wind Press
QNH
hPa
Press
MSL
hPa
Rain
since 9 am
mm
Dir
 
Spd
km/h
Gust
km/h
Spd
kts
Gust
kts
24/11:30pm 8.0 3.6 4.6 79 1.5 WSW 17 24 9 13 1028.1 1028.3 0.0
24/11:00pm 8.4 4.3 4.6 77 1.7 WSW 15 24 8 13 1028.1 1028.3 0.0
24/10:30pm 8.6 4.9 4.4 75 1.9 WSW 13 20 7 11 1028.3 1028.5 0.0
24/10:00pm 9.2 5.5 4.4 72 2.1 WSW 13 20 7 11 1028.4 1028.6 0.0
24/09:30pm 10.0 5.9 4.6 69 2.4 W 15 22 8 12 1028.2 1028.4 0.0
24/09:00pm 10.3 6.6 4.7 68 2.5 W 13 20 7 11 1028.1 1028.3 0.0

Other Formats:

Comma delimited format used in spreadsheet applications
http://www.bom.gov.au/fwo/IDV60801/IDV60801.94839.axf

JavaScript Object Notation format (JSON) in row-major order
http://www.bom.gov.au/fwo/IDV60801/IDV60801.94839.json